Time;durP1;ratioP1;P1;durP2;ratioP2;P2;SDS_P1;SDS_P2;PMS_P1;PMS_P2;Temp;Humidity;BMP_temperature;BMP_pressure;BME280_temperature;BME280_humidity;BME280_pressure;Samples;Min_cycle;Max_cycle;Signal;HPM_P1;HPM_P2
2021/10/12 00:00:55;;;;;;;7.53;5.28;;;;;;;13.28;42.63;94798.94;6069378;23;20026;-89
2021/10/12 00:03:21;;;;;;;7.30;5.25;;;;;;;13.30;42.73;94804.00;6092734;23;20017;-89
2021/10/12 00:05:48;;;;;;;7.03;5.18;;;;;;;13.33;42.69;94802.78;6068973;23;20030;-90
2021/10/12 00:08:14;;;;;;;6.38;5.10;;;;;;;13.27;42.44;94799.16;6093056;23;20017;-89
2021/10/12 00:10:39;;;;;;;6.18;5.07;;;;;;;13.25;42.56;94796.75;6092663;23;20015;-90
2021/10/12 00:13:05;;;;;;;7.55;5.00;;;;;;;13.22;42.41;94793.75;6069738;23;20029;-89
2021/10/12 00:15:30;;;;;;;7.25;4.97;;;;;;;13.18;42.56;94801.19;6045191;23;20014;-89
2021/10/12 00:17:56;;;;;;;6.68;5.18;;;;;;;13.17;42.56;94802.16;6068955;23;20002;-90
2021/10/12 00:20:21;;;;;;;7.15;4.90;;;;;;;13.14;42.51;94791.34;6045823;23;20010;-88
2021/10/12 00:22:47;;;;;;;6.22;4.72;;;;;;;13.16;42.55;94800.59;6069159;23;20077;-89
2021/10/12 00:25:13;;;;;;;7.20;4.88;;;;;;;13.18;42.47;94803.78;6047390;23;20007;-89
2021/10/12 00:27:38;;;;;;;7.22;5.18;;;;;;;13.08;42.48;94791.16;6094525;23;20089;-90
2021/10/12 00:30:05;;;;;;;6.03;4.45;;;;;;;13.02;42.57;94784.13;6094919;23;20025;-89
2021/10/12 00:32:31;;;;;;;5.50;4.50;;;;;;;13.15;42.78;94798.97;6071692;23;20006;-89
2021/10/12 00:34:56;;;;;;;7.80;5.15;;;;;;;13.00;42.68;94783.50;6047417;23;20015;-88
2021/10/12 00:37:28;;;;;;;6.63;5.07;;;;;;;13.01;42.27;94772.06;6046538;23;20010;-90
2021/10/12 00:39:54;;;;;;;7.75;5.15;;;;;;;13.04;42.63;94799.56;6095185;23;20002;-90
2021/10/12 00:42:19;;;;;;;7.88;5.47;;;;;;;12.98;42.68;94789.94;6070213;23;20025;-88
2021/10/12 00:44:45;;;;;;;7.07;5.10;;;;;;;12.95;42.64;94791.19;6069972;23;20003;-90
2021/10/12 00:47:11;;;;;;;6.65;5.07;;;;;;;12.96;42.48;94786.75;6094273;23;20002;-89
2021/10/12 00:49:37;;;;;;;6.82;4.70;;;;;;;12.93;42.60;94781.91;6069894;23;20069;-90
2021/10/12 00:52:03;;;;;;;6.78;4.70;;;;;;;13.01;42.71;94805.22;6095032;23;20006;-90
2021/10/12 00:54:28;;;;;;;6.57;5.25;;;;;;;12.85;42.63;94781.16;6071351;23;20006;-89
2021/10/12 00:56:54;;;;;;;8.07;5.40;;;;;;;12.81;42.63;94772.13;6047190;23;20146;-92
2021/10/12 00:59:20;;;;;;;6.95;5.57;;;;;;;12.85;42.70;94786.38;6070952;23;20073;-90
2021/10/12 01:01:45;;;;;;;6.97;5.55;;;;;;;12.78;42.83;94779.53;6094612;23;20010;-89
2021/10/12 01:04:11;;;;;;;7.80;5.55;;;;;;;12.85;42.72;94796.81;6047086;23;20006;-90
2021/10/12 01:06:37;;;;;;;7.80;5.22;;;;;;;12.75;42.81;94766.88;6070883;23;20010;-91
2021/10/12 01:09:03;;;;;;;7.50;5.47;;;;;;;12.77;42.71;94768.28;6046503;23;20038;-90
2021/10/12 01:11:29;;;;;;;9.63;5.40;;;;;;;12.73;42.73;94766.28;6070950;23;20006;-90
2021/10/12 01:13:54;;;;;;;8.35;5.80;;;;;;;12.72;42.51;94765.50;6071311;23;20066;-89
2021/10/12 01:16:20;;;;;;;8.10;5.65;;;;;;;12.70;42.66;94763.09;6046952;23;20002;-89
2021/10/12 01:19:05;;;;;;;6.95;5.30;;;;;;;12.83;42.31;94767.50;6070285;23;20022;-89
2021/10/12 01:21:42;;;;;;;7.47;5.63;;;;;;;12.74;42.28;94762.66;6070826;23;20016;-90
2021/10/12 01:24:08;;;;;;;6.97;5.72;;;;;;;12.58;42.48;94754.25;6071091;23;20010;-90
2021/10/12 01:26:34;;;;;;;7.35;5.57;;;;;;;12.59;42.39;94765.50;6070510;23;20065;-91
2021/10/12 01:29:00;;;;;;;7.72;5.45;;;;;;;12.62;42.58;94770.28;6071076;23;20010;-90
2021/10/12 01:31:26;;;;;;;8.05;5.85;;;;;;;12.61;42.61;94768.72;6070430;23;19998;-90
2021/10/12 01:33:52;;;;;;;7.63;5.47;;;;;;;12.54;42.60;94750.44;6070437;23;20006;-90
2021/10/12 01:36:18;;;;;;;9.27;5.38;;;;;;;12.57;42.67;94754.47;6070664;23;20002;-90
2021/10/12 01:38:43;;;;;;;7.63;5.55;;;;;;;12.57;42.80;94750.03;6070756;23;20006;-90
2021/10/12 01:41:09;;;;;;;7.13;5.10;;;;;;;12.48;42.62;94744.22;6070770;23;20093;-90
2021/10/12 01:43:38;;;;;;;7.82;5.60;;;;;;;12.56;42.76;94751.03;6047079;23;20089;-91
2021/10/12 01:46:04;;;;;;;7.47;5.57;;;;;;;12.46;42.58;94740.22;6046328;23;20002;-90
2021/10/12 01:48:30;;;;;;;7.20;5.50;;;;;;;12.40;42.95;94735.81;6046397;23;20011;-90
2021/10/12 01:50:56;;;;;;;7.97;5.20;;;;;;;12.42;42.50;94745.03;6070666;23;20010;-91
2021/10/12 01:53:22;;;;;;;7.82;5.68;;;;;;;12.43;42.57;94751.84;6118828;23;20007;-89
2021/10/12 01:55:47;;;;;;;8.15;5.82;;;;;;;12.50;42.54;94755.25;6093952;23;20002;-89
2021/10/12 01:58:13;;;;;;;8.25;5.38;;;;;;;12.27;42.55;94726.16;6070592;23;20037;-90
2021/10/12 02:00:39;;;;;;;6.95;5.38;;;;;;;12.38;42.55;94741.22;6094520;23;20057;-90
2021/10/12 02:03:05;;;;;;;8.45;5.78;;;;;;;12.36;42.54;94740.63;6070490;23;20152;-90
2021/10/12 02:05:30;;;;;;;9.18;5.88;;;;;;;12.31;42.94;94733.38;6070016;23;20130;-89
2021/10/12 02:07:56;;;;;;;8.32;6.13;;;;;;;12.35;42.74;94733.78;6070022;23;20009;-90
2021/10/12 02:10:22;;;;;;;7.43;5.63;;;;;;;12.38;42.87;94743.81;6069993;23;20014;-91
2021/10/12 02:12:48;;;;;;;8.20;5.85;;;;;;;12.24;42.80;94727.38;6118446;23;20010;-90
2021/10/12 02:15:13;;;;;;;8.07;5.68;;;;;;;12.34;42.80;94737.41;6070090;23;20026;-90
2021/10/12 02:17:39;;;;;;;8.68;6.20;;;;;;;12.24;42.56;94724.75;6070330;23;20007;-90
2021/10/12 02:20:06;;;;;;;8.75;5.55;;;;;;;12.18;42.53;94711.72;6070281;23;20097;-89
2021/10/12 02:22:32;;;;;;;7.25;5.53;;;;;;;12.19;42.76;94715.94;6069851;23;20053;-89
2021/10/12 02:24:58;;;;;;;8.95;6.35;;;;;;;12.15;42.67;94707.72;6046502;23;20010;-91
2021/10/12 02:27:23;;;;;;;7.45;5.75;;;;;;;12.17;42.58;94710.13;6069773;23;20030;-90
2021/10/12 02:29:49;;;;;;;8.63;6.05;;;;;;;12.09;42.75;94714.53;6070556;23;20022;-90
2021/10/12 02:32:16;;;;;;;9.68;6.50;;;;;;;12.12;42.64;94713.31;6093428;23;20014;-91
2021/10/12 02:34:42;;;;;;;8.23;5.72;;;;;;;12.07;42.59;94716.53;6069714;23;20010;-90
2021/10/12 02:37:07;;;;;;;8.55;6.43;;;;;;;12.12;42.59;94721.91;6070363;23;20012;-90
2021/10/12 02:39:33;;;;;;;7.93;6.15;;;;;;;12.01;42.86;94713.91;6070326;23;20029;-90
2021/10/12 02:41:58;;;;;;;11.90;6.68;;;;;;;12.02;42.96;94720.72;6046097;23;20025;-89
2021/10/12 02:44:24;;;;;;;9.60;6.75;;;;;;;12.09;42.66;94743.19;6046284;23;20017;-91
2021/10/12 02:46:49;;;;;;;10.00;6.95;;;;;;;11.96;42.84;94719.72;6069382;23;20002;-90
2021/10/12 02:49:15;;;;;;;9.32;6.55;;;;;;;12.05;42.87;94738.56;6094104;23;20042;-90
2021/10/12 02:51:41;;;;;;;9.93;6.60;;;;;;;11.98;42.79;94733.34;6070133;23;20002;-90
2021/10/12 02:54:06;;;;;;;8.52;6.88;;;;;;;11.96;42.73;94737.16;6069646;23;20014;-90
2021/10/12 02:56:32;;;;;;;9.50;6.97;;;;;;;11.90;42.69;94720.50;6070140;23;20002;-90
2021/10/12 02:58:57;;;;;;;10.23;6.88;;;;;;;11.98;42.84;94733.34;6046196;23;20002;-90
2021/10/12 03:01:23;;;;;;;11.93;7.65;;;;;;;11.98;42.94;94741.16;6070468;23;20018;-91
2021/10/12 03:03:48;;;;;;;12.18;8.13;;;;;;;11.91;42.64;94732.53;6070302;23;20021;-90
2021/10/12 03:06:14;;;;;;;13.10;8.70;;;;;;;11.90;43.05;94730.94;6046326;23;20085;-91
2021/10/12 03:08:39;;;;;;;13.93;9.10;;;;;;;11.91;42.75;94735.13;6070293;23;20073;-91
2021/10/12 03:11:05;;;;;;;11.75;8.02;;;;;;;11.91;42.90;94737.75;6070896;23;20010;-91
2021/10/12 03:13:30;;;;;;;11.32;7.72;;;;;;;11.90;42.87;94731.72;6069759;23;20011;-90
2021/10/12 03:15:56;;;;;;;11.18;7.03;;;;;;;11.89;42.73;94724.91;6069973;23;20011;-89
2021/10/12 03:18:21;;;;;;;11.68;7.68;;;;;;;11.84;43.00;94719.47;6070204;23;20010;-90
2021/10/12 03:20:47;;;;;;;11.85;8.13;;;;;;;11.80;42.83;94713.03;6046413;23;20011;-90
2021/10/12 03:23:12;;;;;;;11.40;7.57;;;;;;;11.79;43.13;94710.63;6069805;23;20070;-91
2021/10/12 03:25:38;;;;;;;12.50;8.13;;;;;;;11.77;43.04;94710.03;6069809;23;20054;-91
2021/10/12 03:28:04;;;;;;;9.45;7.20;;;;;;;11.82;43.03;94712.81;6070120;23;20007;-90
2021/10/12 03:30:29;;;;;;;10.85;7.63;;;;;;;11.83;43.22;94706.63;6045945;23;20093;-90
2021/10/12 03:32:55;;;;;;;10.38;7.25;;;;;;;11.87;43.03;94718.25;6070127;23;20015;-91
2021/10/12 03:35:29;;;;;;;11.15;7.70;;;;;;;11.80;42.68;94707.00;6069283;23;20034;-91
2021/10/12 03:37:54;;;;;;;11.00;7.50;;;;;;;11.88;43.11;94718.06;6073135;23;20011;-91
2021/10/12 03:40:20;;;;;;;10.85;7.18;;;;;;;11.72;43.29;94687.94;6069954;23;20006;-91
2021/10/12 03:42:45;;;;;;;10.60;6.60;;;;;;;11.70;43.12;94684.75;6070284;23;20006;-90
2021/10/12 03:45:11;;;;;;;9.25;7.07;;;;;;;11.78;42.99;94690.78;6069717;23;20013;-91
2021/10/12 03:47:36;;;;;;;9.80;6.97;;;;;;;11.68;43.17;94660.69;6069065;23;20085;-90
2021/10/12 03:50:02;;;;;;;9.80;7.30;;;;;;;11.73;43.24;94652.31;6069482;23;20097;-91
2021/10/12 03:52:27;;;;;;;10.32;7.28;;;;;;;11.70;43.28;94653.47;6070101;23;20006;-89
2021/10/12 03:54:53;;;;;;;11.57;8.05;;;;;;;11.77;43.03;94671.75;6069729;23;20041;-90
2021/10/12 03:57:19;;;;;;;10.05;7.60;;;;;;;11.73;43.40;94662.72;6046083;23;20003;-91
2021/10/12 03:59:44;;;;;;;12.98;7.82;;;;;;;11.71;43.27;94651.69;6096074;23;20010;-90
2021/10/12 04:02:10;;;;;;;12.38;8.85;;;;;;;11.85;43.41;94670.75;6048376;23;20013;-90
2021/10/12 04:04:35;;;;;;;12.65;8.90;;;;;;;11.83;43.11;94660.53;6072042;23;20014;-90
2021/10/12 04:07:01;;;;;;;10.70;7.38;;;;;;;11.74;43.19;94644.25;6048379;23;20006;-91
2021/10/12 04:09:26;;;;;;;13.10;8.35;;;;;;;11.67;42.81;94632.22;6071500;23;20006;-91
2021/10/12 04:11:52;;;;;;;11.75;8.60;;;;;;;11.68;43.20;94642.47;6072542;23;20016;-90
2021/10/12 04:14:18;;;;;;;10.35;7.53;;;;;;;11.78;42.98;94649.09;6119796;23;20089;-90
2021/10/12 04:16:43;;;;;;;12.95;8.15;;;;;;;11.69;43.18;94641.47;6072072;23;20010;-90
2021/10/12 04:19:09;;;;;;;14.25;8.40;;;;;;;11.65;43.14;94631.63;6072185;23;20014;-90
2021/10/12 04:21:34;;;;;;;12.38;8.45;;;;;;;11.79;43.25;94648.91;6071698;23;20078;-91
2021/10/12 04:24:00;;;;;;;12.20;7.82;;;;;;;11.70;43.18;94630.03;6048015;23;20030;-90
2021/10/12 04:26:27;;;;;;;12.60;8.57;;;;;;;11.62;43.41;94625.03;6071478;23;20093;-91
2021/10/12 04:28:52;;;;;;;11.45;7.88;;;;;;;11.79;43.15;94645.50;6072822;23;20150;-90
2021/10/12 04:31:18;;;;;;;13.35;8.55;;;;;;;11.67;43.44;94634.84;6095990;23;20070;-91
2021/10/12 04:33:43;;;;;;;12.27;8.30;;;;;;;11.61;43.35;94623.41;6095845;23;20036;-90
2021/10/12 04:36:09;;;;;;;12.32;7.97;;;;;;;11.64;43.22;94614.41;6071764;23;20043;-89
2021/10/12 04:38:34;;;;;;;12.25;7.95;;;;;;;11.70;43.78;94613.63;6048299;23;20014;-90
2021/10/12 04:41:00;;;;;;;12.52;8.52;;;;;;;11.72;43.47;94622.81;6071237;23;20022;-91
2021/10/12 04:43:26;;;;;;;12.52;8.23;;;;;;;11.77;43.40;94624.06;6096194;23;20038;-91
2021/10/12 04:45:51;;;;;;;10.57;7.20;;;;;;;11.66;43.67;94599.38;6071544;23;20007;-90
2021/10/12 04:48:17;;;;;;;10.55;7.25;;;;;;;11.74;43.65;94615.59;6072221;23;20010;-90
2021/10/12 04:50:45;;;;;;;11.05;7.30;;;;;;;11.74;43.42;94613.00;6071674;23;20045;-91
2021/10/12 04:53:11;;;;;;;9.82;6.93;;;;;;;11.70;43.75;94605.78;6072236;23;20069;-92
2021/10/12 04:55:40;;;;;;;10.13;7.22;;;;;;;11.66;43.69;94600.19;6047311;23;20011;-91
2021/10/12 04:58:06;;;;;;;10.13;7.10;;;;;;;11.67;43.47;94593.16;6049649;23;20007;-91
2021/10/12 05:00:31;;;;;;;10.82;7.70;;;;;;;11.71;43.62;94604.81;6071928;23;20026;-92
2021/10/12 05:02:57;;;;;;;11.30;8.35;;;;;;;11.73;43.27;94605.41;6072460;23;20061;-91
2021/10/12 05:05:23;;;;;;;11.32;8.18;;;;;;;11.64;43.50;94583.16;6073390;23;20014;-93
2021/10/12 05:07:54;;;;;;;11.45;7.95;;;;;;;11.83;43.66;94615.44;6072949;23;20030;-93
2021/10/12 05:10:19;;;;;;;;;;;;;;;11.94;42.73;94612.25;6074796;23;20022;-92
2021/10/12 05:12:44;;;;;;;12.45;8.80;;;;;;;11.69;43.58;94588.53;6097920;23;19980;-92
2021/10/12 05:15:10;;;;;;;11.52;8.18;;;;;;;11.69;43.38;94596.38;6072546;23;20014;-91
2021/10/12 05:17:38;;;;;;;11.00;7.63;;;;;;;11.73;43.90;94598.38;6042361;23;20011;-91
2021/10/12 05:20:04;;;;;;;11.20;7.53;;;;;;;11.63;43.39;94590.19;5996633;23;20050;-91
2021/10/12 05:22:29;;;;;;;12.70;8.60;;;;;;;11.65;43.43;94593.38;6019358;23;20010;-91
2021/10/12 05:24:55;;;;;;;12.02;8.20;;;;;;;11.62;43.57;94585.97;5995560;23;20018;-90
2021/10/12 05:27:21;;;;;;;11.00;8.02;;;;;;;11.61;43.90;94583.53;6017855;23;20010;-90
2021/10/12 05:29:46;;;;;;;12.43;8.48;;;;;;;11.55;43.42;94575.50;6018978;23;20014;-91
2021/10/12 05:32:12;;;;;;;10.57;7.85;;;;;;;11.59;43.50;94578.53;6018380;23;20007;-93
2021/10/12 05:34:38;;;;;;;11.90;8.50;;;;;;;11.71;43.56;94600.41;6040416;23;20045;-91
2021/10/12 05:37:23;;;;;;;11.68;8.35;;;;;;;11.78;43.09;94597.78;6022567;23;20019;-94
2021/10/12 08:01:18;;;;;;;9.40;6.95;;;;;;;12.57;48.33;94647.50;6094187;23;20018;-87
2021/10/12 08:03:45;;;;;;;9.35;6.78;;;;;;;12.46;47.91;94633.28;6089951;23;20022;-88
2021/10/12 08:06:11;;;;;;;9.75;7.32;;;;;;;12.63;48.50;94657.13;6070417;23;20003;-93
2021/10/12 08:08:36;;;;;;;10.80;7.00;;;;;;;12.56;49.32;94640.66;6049251;23;20060;-90
2021/10/12 08:11:04;;;;;;;10.60;7.05;;;;;;;12.64;48.90;94650.88;6073165;23;20015;-91
2021/10/12 08:13:30;;;;;;;9.85;7.32;;;;;;;12.60;49.34;94636.66;6045899;23;20030;-91
2021/10/12 08:16:29;;;;;;;15.65;9.05;;;;;;;12.60;49.47;94626.22;6072371;23;20006;-90
2021/10/12 08:18:54;;;;;;;9.57;7.68;;;;;;;12.69;49.09;94636.22;6101086;23;20026;-88
2021/10/12 08:21:20;;;;;;;11.68;8.30;;;;;;;12.78;48.68;94642.03;6091229;23;20025;-88
2021/10/12 08:23:46;;;;;;;11.57;8.73;;;;;;;12.82;50.02;94638.00;6068147;23;20002;-88
2021/10/12 08:26:11;;;;;;;12.73;8.77;;;;;;;12.79;48.65;94640.22;6067390;23;20014;-88
2021/10/12 08:28:37;;;;;;;12.20;8.88;;;;;;;12.86;49.90;94646.22;6115639;23;20015;-91
2021/10/12 08:31:03;;;;;;;11.20;8.05;;;;;;;12.96;50.35;94651.00;6066444;23;20106;-89
2021/10/12 08:33:28;;;;;;;12.75;8.93;;;;;;;12.93;49.73;94641.78;6091094;23;20014;-88
2021/10/12 08:35:54;;;;;;;12.32;8.73;;;;;;;13.02;49.48;94651.00;6068202;23;20092;-89
2021/10/12 08:38:20;;;;;;;14.07;9.48;;;;;;;12.97;49.43;94632.53;6067931;23;20010;-89
2021/10/12 08:40:45;;;;;;;12.02;8.45;;;;;;;13.01;49.33;94643.38;6091991;23;20014;-89
2021/10/12 08:43:11;;;;;;;10.40;7.93;;;;;;;13.07;49.48;94647.75;6068984;23;20033;-88
2021/10/12 08:45:37;;;;;;;11.98;9.00;;;;;;;13.05;49.44;94639.34;6073275;23;20068;-93
2021/10/12 08:48:04;;;;;;;12.75;9.50;;;;;;;13.20;49.79;94655.53;6071440;23;20029;-91
2021/10/12 08:50:30;;;;;;;12.98;9.73;;;;;;;13.20;50.12;94642.47;6070998;23;20017;-88
2021/10/12 08:52:56;;;;;;;13.05;9.98;;;;;;;13.18;50.36;94634.06;6070931;23;20014;-89
2021/10/12 08:55:21;;;;;;;14.10;9.95;;;;;;;13.40;50.42;94658.09;6070261;23;20037;-90
2021/10/12 08:57:47;;;;;;;12.20;9.32;;;;;;;13.37;50.03;94647.28;6070076;23;20015;-90
2021/10/12 09:00:14;;;;;;;13.63;10.32;;;;;;;13.40;50.19;94646.84;6070107;23;20014;-90
2021/10/12 09:05:54;;;;;;;12.98;9.52;;;;;;;13.60;48.76;94655.38;6073857;23;20070;-88
2021/10/12 09:08:35;;;;;;;13.43;9.48;;;;;;;13.58;48.68;94641.72;6071000;23;19998;-91
2021/10/12 09:11:00;;;;;;;13.70;9.70;;;;;;;13.60;50.45;94644.91;6070940;23;20010;-92
2021/10/12 09:13:26;;;;;;;11.70;9.10;;;;;;;13.64;49.69;94643.47;6070827;23;20038;-90
2021/10/12 09:16:09;;;;;;;13.32;9.65;;;;;;;13.73;48.29;94632.78;6072267;23;20038;-92
2021/10/12 09:18:55;;;;;;;11.57;8.90;;;;;;;13.82;48.31;94639.34;6048618;23;20002;-90
2021/10/12 09:21:26;;;;;;;12.73;9.30;;;;;;;13.95;49.18;94643.69;6030879;23;20019;-89
2021/10/12 09:24:11;;;;;;;14.18;9.98;;;;;;;13.92;48.46;94629.25;6038122;23;20011;-92
2021/10/12 09:26:43;;;;;;;12.00;8.80;;;;;;;13.91;49.48;94626.84;6014615;23;20007;-91
2021/10/12 09:35:09;;;;;;;4.55;3.47;;;;;;;14.13;54.86;94672.53;5080206;27;20710;-83
2021/10/12 09:37:34;;;;;;;3.80;3.15;;;;;;;14.78;55.20;94666.16;5062191;28;20124;-81
2021/10/12 09:40:00;;;;;;;3.95;2.90;;;;;;;15.54;53.44;94653.59;5032726;28;20110;-81
2021/10/12 09:42:25;;;;;;;4.93;2.70;;;;;;;16.32;51.42;94663.16;5049901;28;20043;-81
2021/10/12 09:45:00;;;;;;;2.63;2.40;;;;;;;17.11;49.78;94670.69;5041344;28;20036;-82
2021/10/12 09:47:28;;;;;;;4.07;2.75;;;;;;;17.84;47.66;94662.31;5051832;28;20024;-82
2021/10/12 09:50:13;;;;;;;4.38;2.58;;;;;;;18.62;47.52;94658.09;5065540;28;20032;-82
2021/10/12 09:52:45;;;;;;;3.05;2.75;;;;;;;19.21;44.18;94654.16;5054108;28;20033;-82
2021/10/12 09:55:13;;;;;;;3.45;2.65;;;;;;;19.80;42.71;94651.69;5050959;28;20038;-82
2021/10/12 09:57:41;;;;;;;3.33;3.00;;;;;;;20.33;41.67;94653.72;5066297;28;20077;-82
2021/10/12 10:00:08;;;;;;;4.38;3.38;;;;;;;20.80;40.70;94653.03;5049054;28;20109;-82
2021/10/12 10:02:34;;;;;;;4.50;3.35;;;;;;;21.23;39.25;94653.78;5067072;28;20032;-82
2021/10/12 10:04:59;;;;;;;3.95;3.55;;;;;;;21.56;38.87;94638.59;5042660;28;20094;-83
2021/10/12 10:07:29;;;;;;;3.78;3.17;;;;;;;21.93;38.59;94648.19;5075194;28;20028;-82
2021/10/12 10:09:57;;;;;;;3.45;3.15;;;;;;;22.24;37.10;94641.84;5062312;28;20077;-82
2021/10/12 10:12:24;;;;;;;3.92;3.20;;;;;;;22.55;36.54;94644.53;5061750;28;20063;-82
2021/10/12 10:14:50;;;;;;;3.78;3.25;;;;;;;22.81;36.26;94652.44;5061506;28;20039;-82
2021/10/12 10:17:15;;;;;;;4.15;3.40;;;;;;;23.05;35.68;94651.88;5049942;28;20028;-82
2021/10/12 10:19:42;;;;;;;3.38;3.08;;;;;;;23.25;35.11;94646.53;5060573;28;20024;-82
2021/10/12 10:22:07;;;;;;;3.20;2.83;;;;;;;23.43;34.71;94632.63;5043820;28;20020;-82
2021/10/12 10:24:33;;;;;;;3.38;3.08;;;;;;;23.61;34.02;94636.53;5048868;28;20077;-83
2021/10/12 10:27:01;;;;;;;3.35;3.05;;;;;;;23.75;34.21;94626.09;5059845;28;20055;-82
2021/10/12 10:29:37;;;;;;;3.83;3.38;;;;;;;23.92;33.72;94627.63;5032427;28;20028;-82
2021/10/12 10:32:17;;;;;;;3.50;3.20;;;;;;;24.15;35.90;94618.94;5042457;28;20154;-83
2021/10/12 10:34:59;;;;;;;3.67;2.95;;;;;;;24.26;34.12;94614.34;5040346;28;20047;-82
2021/10/12 10:37:27;;;;;;;3.40;3.10;;;;;;;24.31;32.87;94609.00;5045802;28;20076;-82
2021/10/12 10:40:02;;;;;;;3.42;3.03;;;;;;;24.48;34.64;94597.94;5057681;28;20029;-82
2021/10/12 10:42:28;;;;;;;4.18;3.67;;;;;;;24.50;32.60;94585.19;5059142;28;20025;-83
2021/10/12 10:44:53;;;;;;;4.88;3.97;;;;;;;24.57;31.99;94583.00;5062294;28;20039;-82
2021/10/12 10:47:41;;;;;;;5.20;4.07;;;;;;;24.75;34.73;94586.81;5047809;28;20028;-83
2021/10/12 10:50:12;;;;;;;3.63;3.33;;;;;;;24.78;32.69;94569.50;5050597;28;20056;-82
2021/10/12 10:52:44;;;;;;;4.05;3.65;;;;;;;24.83;32.16;94574.75;5048181;28;20040;-83
2021/10/12 10:55:10;;;;;;;4.18;3.78;;;;;;;24.82;31.39;94570.50;5036770;28;20056;-82
2021/10/12 10:57:39;;;;;;;4.60;3.75;;;;;;;24.89;32.21;94555.00;5012735;28;20059;-83
2021/10/12 11:00:16;;;;;;;3.80;3.47;;;;;;;25.02;33.52;94560.69;5058446;28;20033;-83
2021/10/12 11:02:42;;;;;;;3.83;3.25;;;;;;;24.94;31.22;94560.28;5047711;28;20030;-82
2021/10/12 11:05:08;;;;;;;5.53;3.80;;;;;;;25.01;30.94;94564.44;5025996;28;20116;-83
2021/10/12 11:07:33;;;;;;;4.07;3.50;;;;;;;25.02;30.86;94560.69;5016287;28;20032;-83
2021/10/12 11:10:01;;;;;;;3.78;3.38;;;;;;;25.08;30.79;94560.38;5024942;28;20040;-83
2021/10/12 11:12:28;;;;;;;3.85;3.45;;;;;;;25.12;30.79;94563.25;5016988;28;20041;-83
2021/10/12 11:14:54;;;;;;;3.97;3.28;;;;;;;25.13;30.58;94564.81;5042518;28;20036;-82
2021/10/12 11:17:21;;;;;;;3.47;3.15;;;;;;;25.17;30.23;94563.19;5033262;28;20021;-83
2021/10/12 11:19:53;;;;;;;3.50;3.20;;;;;;;25.28;31.95;94561.22;5016628;28;20036;-82
2021/10/12 11:22:19;;;;;;;3.40;3.10;;;;;;;25.21;30.28;94553.56;5048022;28;20095;-82
2021/10/12 11:24:45;;;;;;;3.83;2.95;;;;;;;25.25;30.16;94551.16;5033451;28;20033;-82
2021/10/12 11:27:10;;;;;;;3.67;3.38;;;;;;;25.24;30.57;94552.22;5043400;28;20021;-83
2021/10/12 11:29:36;;;;;;;3.40;3.10;;;;;;;25.28;30.42;94551.34;5017255;28;20029;-83
2021/10/12 11:32:04;;;;;;;3.97;3.50;;;;;;;25.35;30.73;94549.13;5016709;28;20087;-83
2021/10/12 11:34:32;;;;;;;4.20;3.80;;;;;;;25.31;30.00;94548.13;5034906;28;20030;-82
2021/10/12 11:37:13;;;;;;;3.65;3.30;;;;;;;25.41;31.87;94539.19;5017194;28;20037;-83
2021/10/12 11:39:38;;;;;;;4.32;3.15;;;;;;;25.34;29.92;94550.22;5025637;28;20025;-82
2021/10/12 11:42:05;;;;;;;3.47;3.13;;;;;;;25.30;30.19;94532.44;5059454;28;20098;-82
2021/10/12 11:44:33;;;;;;;3.67;3.20;;;;;;;25.36;29.96;94539.28;5069839;28;20058;-82
2021/10/12 11:47:03;;;;;;;3.45;3.15;;;;;;;25.35;29.89;94535.81;5037171;28;20097;-82
2021/10/12 11:49:37;;;;;;;3.72;3.30;;;;;;;25.47;31.35;94532.72;5054444;28;20017;-82
2021/10/12 11:52:05;;;;;;;3.92;3.50;;;;;;;25.40;29.70;94526.16;5036994;28;20039;-82
2021/10/12 11:54:32;;;;;;;3.90;3.45;;;;;;;25.39;29.74;94525.38;5071154;28;20017;-82
2021/10/12 11:56:58;;;;;;;4.40;3.60;;;;;;;25.42;29.79;94524.81;5051365;28;20040;-83
2021/10/12 11:59:34;;;;;;;4.15;3.55;;;;;;;25.42;29.80;94522.16;5040224;28;20033;-82
2021/10/12 12:02:01;;;;;;;3.85;3.17;;;;;;;25.43;29.57;94518.41;5040513;28;20052;-82
2021/10/12 12:04:28;;;;;;;4.07;3.47;;;;;;;25.42;29.81;94511.50;5039349;28;20028;-82
2021/10/12 12:06:57;;;;;;;4.40;4.00;;;;;;;25.44;29.60;94516.56;5052370;28;20179;-82
2021/10/12 12:09:24;;;;;;;4.43;4.03;;;;;;;25.45;29.64;94515.47;5037310;28;20040;-83
2021/10/12 12:11:52;;;;;;;5.03;3.80;;;;;;;25.44;29.91;94517.34;5036034;28;20033;-83
2021/10/12 12:14:26;;;;;;;4.65;3.80;;;;;;;25.53;30.85;94517.47;5032366;28;20031;-82
2021/10/12 12:17:14;;;;;;;4.53;3.95;;;;;;;25.54;31.31;94505.75;5024209;28;20044;-83
2021/10/12 12:19:41;;;;;;;4.13;3.63;;;;;;;25.42;29.61;94489.41;5020843;28;20032;-82
2021/10/12 12:22:19;;;;;;;4.38;3.63;;;;;;;25.48;30.39;94491.72;5016078;28;20041;-83
2021/10/12 12:25:10;;;;;;;4.22;3.53;;;;;;;25.52;31.46;94498.03;5033390;28;20052;-82
2021/10/12 12:27:57;;;;;;;4.32;3.47;;;;;;;25.54;31.42;94503.88;5038548;28;20036;-83
2021/10/12 12:30:34;;;;;;;4.00;3.38;;;;;;;25.49;30.79;94495.16;5045740;28;20025;-82
2021/10/12 12:32:59;;;;;;;3.83;3.42;;;;;;;25.42;29.60;94497.38;5024573;28;20037;-82
2021/10/12 12:35:27;;;;;;;3.95;3.28;;;;;;;25.47;30.02;94495.44;5048208;28;20049;-83
2021/10/12 12:37:57;;;;;;;4.05;3.50;;;;;;;25.48;30.20;94497.03;5057366;28;20121;-82
2021/10/12 12:40:27;;;;;;;3.85;3.45;;;;;;;25.47;30.01;94482.13;5032585;28;20064;-82
2021/10/12 12:42:52;;;;;;;;;;;;;;;25.64;32.08;94489.59;5014309;28;20077;-83
2021/10/12 12:45:22;;;;;;;3.67;2.92;;;;;;;25.44;29.25;94484.59;5033410;28;19920;-83
2021/10/12 12:47:57;;;;;;;3.72;3.35;;;;;;;25.49;30.20;94477.34;5023209;28;20069;-83
2021/10/12 12:50:28;;;;;;;3.60;3.15;;;;;;;25.47;29.65;94484.00;5032745;28;20033;-83
2021/10/12 12:52:55;;;;;;;;;;;;;;;25.66;31.81;94484.00;5044223;28;20064;-83
2021/10/12 12:55:42;;;;;;;3.83;3.25;;;;;;;25.62;30.97;94481.13;5047676;28;20007;-83
2021/10/12 12:58:14;;;;;;;3.47;3.08;;;;;;;25.50;29.50;94480.78;5045007;28;20067;-83
2021/10/12 13:00:56;;;;;;;4.00;3.30;;;;;;;25.44;29.43;94466.75;5020621;28;20039;-83
2021/10/12 13:03:21;;;;;;;3.78;3.20;;;;;;;25.47;29.83;94474.16;5030296;28;20033;-83
2021/10/12 13:05:49;;;;;;;4.22;3.28;;;;;;;25.44;29.05;94469.41;5026477;28;20128;-82
2021/10/12 13:08:14;;;;;;;3.38;3.08;;;;;;;25.44;29.43;94458.00;5024985;28;20040;-82
2021/10/12 13:10:43;;;;;;;3.65;3.35;;;;;;;25.51;29.71;94458.38;5013117;28;20032;-82
2021/10/12 13:13:10;;;;;;;3.58;3.00;;;;;;;25.46;29.58;94450.50;5029209;28;20029;-82
2021/10/12 13:15:38;;;;;;;3.80;2.90;;;;;;;25.45;29.35;94449.69;5046034;28;20354;-83
2021/10/12 13:18:08;;;;;;;2.88;2.65;;;;;;;25.52;29.66;94446.66;5057659;28;20126;-83
2021/10/12 13:20:34;;;;;;;3.47;2.78;;;;;;;25.47;29.33;94444.06;5029715;28;20039;-83
2021/10/12 13:23:01;;;;;;;3.22;2.72;;;;;;;25.48;29.21;94445.66;5033086;28;20033;-83
2021/10/12 13:25:27;;;;;;;2.88;2.60;;;;;;;25.47;29.42;94441.41;5028679;28;20028;-83
2021/10/12 13:27:52;;;;;;;3.28;2.97;;;;;;;25.47;29.21;94444.84;5014819;28;20052;-82
2021/10/12 13:30:17;;;;;;;2.72;2.53;;;;;;;25.50;29.10;94448.84;5016765;28;20039;-82
2021/10/12 13:32:45;;;;;;;3.58;2.72;;;;;;;25.49;29.04;94445.38;5048120;28;20037;-83
2021/10/12 13:35:14;;;;;;;3.20;2.90;;;;;;;25.50;29.09;94440.84;5025341;28;20026;-83
2021/10/12 13:37:42;;;;;;;3.03;2.60;;;;;;;25.51;29.19;94445.88;5027316;28;20058;-83
2021/10/12 13:40:08;;;;;;;3.13;2.58;;;;;;;25.51;29.16;94445.88;5027734;28;20103;-82
2021/10/12 13:42:34;;;;;;;3.00;2.58;;;;;;;25.52;29.17;94442.13;5033022;28;20033;-83
2021/10/12 13:45:00;;;;;;;2.50;2.30;;;;;;;25.52;28.78;94438.69;5013161;28;20038;-83
2021/10/12 13:47:25;;;;;;;2.55;2.30;;;;;;;25.52;29.31;94441.34;5031619;28;20028;-83
2021/10/12 13:49:51;;;;;;;2.95;2.58;;;;;;;25.54;28.88;94437.31;5028263;28;20107;-82
2021/10/12 13:52:19;;;;;;;2.60;2.38;;;;;;;25.48;28.81;94421.72;5045931;28;20051;-83
2021/10/12 13:54:44;;;;;;;3.03;2.55;;;;;;;25.55;28.64;94435.41;5043142;28;20029;-82
2021/10/12 13:57:10;;;;;;;2.60;2.30;;;;;;;25.55;28.93;94435.41;5015322;28;20051;-83
2021/10/12 13:59:37;;;;;;;3.20;2.47;;;;;;;25.57;28.61;94430.63;5032953;28;20025;-83
2021/10/12 14:02:08;;;;;;;3.25;2.42;;;;;;;25.60;29.15;94423.91;5030730;28;20033;-83
2021/10/12 14:04:34;;;;;;;2.78;2.17;;;;;;;25.58;28.75;94434.06;5046449;28;20025;-83